createdAt,value
2018-09-14T00:00:48.103Z,102340.29
2018-09-14T00:03:16.789Z,102338.98
2018-09-14T00:05:45.485Z,102339.51
2018-09-14T00:08:14.203Z,102335.24
2018-09-14T00:10:42.928Z,102341.02
2018-09-14T00:13:11.657Z,102340.62
2018-09-14T00:15:40.379Z,102349.80
2018-09-14T00:18:09.073Z,102344.55
2018-09-14T00:20:37.769Z,102348.94
2018-09-14T00:23:06.501Z,102346.77
2018-09-14T00:25:35.230Z,102348.56
2018-09-14T00:28:03.972Z,102346.40
2018-09-14T00:30:32.649Z,102347.75
2018-09-14T00:33:01.375Z,102338.69
2018-09-14T00:35:30.107Z,102345.33
2018-09-14T00:37:58.806Z,102342.30
2018-09-14T00:40:27.548Z,102344.55
2018-09-14T00:42:56.264Z,102332.08
2018-09-14T00:45:24.955Z,102332.98
2018-09-14T00:47:53.655Z,102326.02
2018-09-14T00:50:22.349Z,102315.92
2018-09-14T00:52:52.010Z,102310.55
2018-09-14T00:55:20.786Z,102299.66
2018-09-14T00:57:49.532Z,102310.02
2018-09-14T01:00:18.240Z,102312.98
2018-09-14T01:02:46.948Z,102300.31
2018-09-14T01:05:16.569Z,102294.56
2018-09-14T01:07:45.297Z,102303.66
2018-09-14T01:10:14.002Z,102287.19
2018-09-14T01:12:42.721Z,102293.17
2018-09-14T01:15:12.330Z,102296.66
2018-09-14T01:17:41.048Z,102301.50
2018-09-14T01:20:09.813Z,102305.18
2018-09-14T01:22:38.517Z,102296.58
2018-09-14T01:25:07.286Z,102296.66
2018-09-14T01:27:35.976Z,102293.75
2018-09-14T01:30:04.814Z,102288.62
2018-09-14T01:32:33.521Z,102270.91
2018-09-14T01:35:02.266Z,102269.19
2018-09-14T01:37:31.292Z,102283.70
2018-09-14T01:39:59.968Z,102292.95
2018-09-14T01:42:28.698Z,102301.73
2018-09-14T01:44:57.388Z,102288.92
2018-09-14T01:47:26.098Z,102294.82
2018-09-14T01:49:54.792Z,102291.09
2018-09-14T01:52:23.507Z,102289.35
2018-09-14T01:54:52.208Z,102294.79
2018-09-14T01:57:20.909Z,102287.08
2018-09-14T01:59:49.584Z,102296.45
2018-09-14T02:02:18.296Z,102295.36
2018-09-14T02:04:46.988Z,102287.73
2018-09-14T02:07:15.697Z,102276.66
2018-09-14T02:09:44.427Z,102277.22
2018-09-14T02:12:13.112Z,102268.57
2018-09-14T02:14:41.815Z,102262.12
2018-09-14T02:17:10.520Z,102268.12
2018-09-14T02:19:39.216Z,102271.11
2018-09-14T02:22:07.913Z,102267.52
2018-09-14T02:24:36.630Z,102259.02
2018-09-14T02:27:05.350Z,102271.11
2018-09-14T02:29:34.066Z,102275.04
2018-09-14T02:32:02.879Z,102274.14
2018-09-14T02:34:31.559Z,102260.29
2018-09-14T02:37:00.276Z,102267.70
2018-09-14T02:39:29.016Z,102262.95
2018-09-14T02:41:57.740Z,102262.69
2018-09-14T02:44:26.504Z,102263.21
2018-09-14T02:46:55.203Z,102256.25
2018-09-14T02:49:23.893Z,102259.73
2018-09-14T02:51:52.610Z,102247.31
2018-09-14T02:54:21.376Z,102247.16
2018-09-14T02:56:50.127Z,102240.19
2018-09-14T02:59:18.818Z,102231.88
2018-09-14T03:01:47.568Z,102234.50
2018-09-14T03:04:16.229Z,102227.02
2018-09-14T03:06:44.870Z,102220.47
2018-09-14T03:09:13.536Z,102222.52
2018-09-14T03:11:42.251Z,102215.56
2018-09-14T03:14:10.979Z,102215.11
2018-09-14T03:16:39.692Z,102209.42
2018-09-14T03:19:08.436Z,102208.97
2018-09-14T03:21:37.115Z,102206.80
2018-09-14T03:24:05.782Z,102208.19
2018-09-14T03:26:34.517Z,102209.49
2018-09-14T03:29:03.236Z,102203.84
2018-09-14T03:31:31.950Z,102208.19
2018-09-14T03:34:00.630Z,102218.18
2018-09-14T03:36:29.412Z,102216.94
2018-09-14T03:38:58.121Z,102216.50
2018-09-14T03:41:26.869Z,102212.61
2018-09-14T03:43:55.658Z,102217.84
2018-09-14T03:46:24.340Z,102216.53
2018-09-14T03:48:53.024Z,102210.39
2018-09-14T03:51:21.679Z,102202.94
2018-09-14T03:53:50.364Z,102208.19
2018-09-14T03:56:19.031Z,102205.56
2018-09-14T03:58:47.755Z,102198.53
2018-09-14T04:01:16.440Z,102200.32
2018-09-14T04:03:45.142Z,102204.25
2018-09-14T04:06:13.949Z,102202.94
2018-09-14T04:08:42.647Z,102200.70
2018-09-14T04:11:11.314Z,102205.48
2018-09-14T04:13:39.979Z,102195.45
2018-09-14T04:16:08.626Z,102193.24
2018-09-14T04:18:37.996Z,102198.53
2018-09-14T04:21:06.721Z,102195.58
2018-09-14T04:23:35.413Z,102192.70
2018-09-14T04:26:04.109Z,102195.36
2018-09-14T04:28:32.840Z,102178.92
2018-09-14T04:31:01.524Z,102187.77
2018-09-14T04:33:30.201Z,102183.09
2018-09-14T04:35:58.892Z,102192.78
2018-09-14T04:38:27.584Z,102199.33
2018-09-14T04:40:56.272Z,102198.59
2018-09-14T04:43:24.937Z,102195.63
2018-09-14T04:45:53.591Z,102192.60
2018-09-14T04:48:22.275Z,102192.60
2018-09-14T04:50:50.980Z,102186.05
2018-09-14T04:53:19.651Z,102182.53
2018-09-14T04:55:48.300Z,102176.44
2018-09-14T04:58:17.934Z,102172.36
2018-09-14T05:00:47.271Z,102180.48
2018-09-14T05:03:15.998Z,102177.94
2018-09-14T05:05:44.655Z,102183.55
2018-09-14T05:08:13.338Z,102176.55
2018-09-14T05:10:42.042Z,102186.58
2018-09-14T05:13:10.715Z,102185.27
2018-09-14T05:15:39.401Z,102184.81
2018-09-14T05:18:08.253Z,102181.75
2018-09-14T05:20:37.008Z,102180.03
2018-09-14T05:23:05.712Z,102184.81
2018-09-14T05:25:34.388Z,102182.24
2018-09-14T05:28:03.031Z,102180.55
2018-09-14T05:30:31.760Z,102187.89
2018-09-14T05:33:00.475Z,102186.98
2018-09-14T05:35:29.243Z,102177.48
2018-09-14T05:37:57.944Z,102183.52
2018-09-14T05:40:26.603Z,102177.86
2018-09-14T05:42:55.289Z,102188.30
2018-09-14T05:45:24.059Z,102196.16
2018-09-14T05:47:52.731Z,102193.05
2018-09-14T05:50:21.442Z,102186.98
2018-09-14T05:52:50.109Z,102196.42
2018-09-14T05:55:18.785Z,102192.83
2018-09-14T05:57:47.484Z,102196.30
2018-09-14T06:00:16.227Z,102196.27
2018-09-14T06:02:44.993Z,102197.50
2018-09-14T06:05:13.759Z,102183.95
2018-09-14T06:07:42.456Z,102201.31
2018-09-14T06:10:11.142Z,102196.08
2018-09-14T06:12:39.827Z,102186.56
2018-09-14T06:15:08.572Z,102185.70
2018-09-14T06:17:37.280Z,102200.19
2018-09-14T06:20:06.018Z,102195.41
2018-09-14T06:22:34.741Z,102191.52
2018-09-14T06:25:03.496Z,102189.30
2018-09-14T06:27:32.243Z,102194.47
2018-09-14T06:30:00.923Z,102189.19
2018-09-14T06:32:30.004Z,102186.12
2018-09-14T06:34:58.724Z,102184.81
2018-09-14T06:37:27.494Z,102187.88
2018-09-14T06:39:56.169Z,102191.73
2018-09-14T06:42:24.860Z,102188.59
2018-09-14T06:44:53.592Z,102189.00
2018-09-14T06:47:22.250Z,102197.15
2018-09-14T06:49:51.108Z,102197.86
2018-09-14T06:52:19.920Z,102198.15
2018-09-14T06:54:48.679Z,102196.27
2018-09-14T06:57:17.396Z,102200.13
2018-09-14T06:59:46.311Z,102199.56
2018-09-14T07:02:15.089Z,102202.44
2018-09-14T07:04:43.870Z,102207.16
2018-09-14T07:07:12.557Z,102205.34
2018-09-14T07:09:41.350Z,102209.53
2018-09-14T07:12:10.046Z,102206.80
2018-09-14T07:14:38.845Z,102209.30
2018-09-14T07:17:07.644Z,102211.39
2018-09-14T07:19:36.496Z,102209.58
2018-09-14T07:22:05.233Z,102210.28
2018-09-14T07:24:34.120Z,102206.19
2018-09-14T07:27:02.885Z,102208.61
2018-09-14T07:29:31.588Z,102202.79
2018-09-14T07:32:00.319Z,102209.50
2018-09-14T07:34:29.033Z,102205.04
2018-09-14T07:36:57.739Z,102201.39
2018-09-14T07:39:26.395Z,102201.27
2018-09-14T07:41:55.079Z,102209.79
2018-09-14T07:44:25.567Z,102207.16
2018-09-14T07:46:54.242Z,102225.91
2018-09-14T07:49:22.911Z,102209.14
2018-09-14T07:51:51.567Z,102215.21
2018-09-14T07:54:20.234Z,102229.36
2018-09-14T07:56:48.898Z,102225.50
2018-09-14T07:59:17.599Z,102222.48
2018-09-14T08:01:46.263Z,102228.40
2018-09-14T08:04:14.973Z,102215.27
2018-09-14T08:06:43.741Z,102226.46
2018-09-14T08:09:13.556Z,102220.96
2018-09-14T08:11:42.568Z,102220.89
2018-09-14T08:14:11.747Z,102230.02
2018-09-14T08:16:40.482Z,102216.91
2018-09-14T08:19:09.165Z,102214.73
2018-09-14T08:21:37.885Z,102218.61
2018-09-14T08:24:06.662Z,102218.18
2018-09-14T08:26:35.356Z,102213.63
2018-09-14T08:29:04.079Z,102219.42
2018-09-14T08:31:32.780Z,102221.31
2018-09-14T08:34:01.529Z,102222.30
2018-09-14T08:36:30.229Z,102215.94
2018-09-14T08:38:58.917Z,102212.13
2018-09-14T08:41:27.633Z,102216.59
2018-09-14T08:43:56.400Z,102223.80
2018-09-14T08:46:25.141Z,102222.19
2018-09-14T08:48:53.839Z,102212.02
2018-09-14T08:51:22.552Z,102225.05
2018-09-14T08:53:51.227Z,102224.20
2018-09-14T08:56:19.944Z,102228.06
2018-09-14T08:58:48.820Z,102226.70
2018-09-14T09:01:17.559Z,102219.02
2018-09-14T09:03:46.294Z,102220.52
2018-09-14T09:06:14.947Z,102226.55
2018-09-14T09:08:43.745Z,102220.98
2018-09-14T09:11:12.468Z,102227.44
2018-09-14T09:13:41.136Z,102227.48
2018-09-14T09:16:09.831Z,102232.33
2018-09-14T09:18:38.566Z,102234.58
2018-09-14T09:21:07.275Z,102229.12
2018-09-14T09:23:35.999Z,102234.23
2018-09-14T09:26:04.791Z,102232.47
2018-09-14T09:28:33.468Z,102230.70
2018-09-14T09:31:02.221Z,102236.41
2018-09-14T09:33:30.936Z,102236.08
2018-09-14T09:35:59.640Z,102237.08
2018-09-14T09:38:28.346Z,102226.30
2018-09-14T09:40:57.018Z,102221.50
2018-09-14T09:43:25.726Z,102234.13
2018-09-14T09:45:54.431Z,102234.50
2018-09-14T09:48:23.111Z,102237.08
2018-09-14T09:50:51.926Z,102237.77
2018-09-14T09:53:20.600Z,102240.67
2018-09-14T09:55:49.424Z,102236.25
2018-09-14T09:58:18.182Z,102248.19
2018-09-14T10:00:52.048Z,102251.39
2018-09-14T10:03:25.876Z,102250.77
2018-09-14T10:06:27.318Z,102248.30
2018-09-14T10:08:57.141Z,102245.06
2018-09-14T10:11:26.688Z,102238.89
2018-09-14T10:13:55.435Z,102244.21
2018-09-14T10:16:24.133Z,102262.04
2018-09-14T10:18:52.842Z,102265.09
2018-09-14T10:21:21.626Z,102259.79
2018-09-14T10:23:50.268Z,102260.78
2018-09-14T10:26:18.966Z,102253.76
2018-09-14T10:28:47.982Z,102259.45
2018-09-14T10:31:16.669Z,102255.97
2018-09-14T10:33:45.397Z,102246.45
2018-09-14T10:36:14.165Z,102248.54
2018-09-14T10:38:42.838Z,102247.86
2018-09-14T10:41:11.555Z,102251.84
2018-09-14T10:43:40.244Z,102248.61
2018-09-14T10:46:08.945Z,102245.06
2018-09-14T10:48:37.707Z,102244.03
2018-09-14T10:51:06.396Z,102238.72
2018-09-14T10:53:35.086Z,102244.98
2018-09-14T10:56:03.851Z,102251.58
2018-09-14T10:58:37.704Z,102244.73
2018-09-14T11:01:06.439Z,102241.39
2018-09-14T11:03:35.123Z,102248.28
2018-09-14T11:06:03.815Z,102242.55
2018-09-14T11:08:32.518Z,102239.52
2018-09-14T11:11:01.238Z,102245.34
2018-09-14T11:13:29.947Z,102250.86
2018-09-14T11:15:58.616Z,102251.61
2018-09-14T11:18:27.623Z,102247.08
2018-09-14T11:20:56.299Z,102260.92
2018-09-14T11:23:24.945Z,102242.86
2018-09-14T11:25:54.202Z,102238.36
2018-09-14T11:28:22.887Z,102244.94
2018-09-14T11:30:51.579Z,102244.54
2018-09-14T11:33:20.392Z,102246.53
2018-09-14T11:35:49.147Z,102254.67
2018-09-14T11:38:17.924Z,102259.11
2018-09-14T11:40:46.610Z,102259.18
2018-09-14T11:43:18.567Z,102255.78
2018-09-14T11:45:47.248Z,102253.35
2018-09-14T11:48:15.995Z,102245.84
2018-09-14T11:50:44.680Z,102247.16
2018-09-14T11:53:13.466Z,102248.44
2018-09-14T11:55:42.165Z,102251.85
2018-09-14T11:58:10.922Z,102246.14
2018-09-14T12:00:39.648Z,102249.64
2018-09-14T12:03:08.637Z,102243.20
2018-09-14T12:05:37.584Z,102239.84
2018-09-14T12:08:06.580Z,102254.37
2018-09-14T12:10:35.408Z,102235.24
2018-09-14T12:13:04.160Z,102241.14
2018-09-14T12:15:33.062Z,102243.39
2018-09-14T12:18:01.919Z,102236.11
2018-09-14T12:20:30.722Z,102242.36
2018-09-14T12:22:59.501Z,102244.00
2018-09-14T12:25:28.562Z,102246.48
2018-09-14T12:27:57.342Z,102241.84
2018-09-14T12:30:26.180Z,102248.29
2018-09-14T12:32:55.161Z,102231.16
2018-09-14T12:35:23.935Z,102240.98
2018-09-14T12:37:52.803Z,102230.59
2018-09-14T12:40:21.582Z,102226.53
2018-09-14T12:42:50.394Z,102237.52
2018-09-14T12:45:19.226Z,102244.22
2018-09-14T12:47:47.909Z,102240.66
2018-09-14T12:50:16.713Z,102237.31
2018-09-14T12:52:45.451Z,102243.19
2018-09-14T12:55:14.363Z,102238.84
2018-09-14T12:57:43.196Z,102232.46
2018-09-14T13:00:11.984Z,102221.41
2018-09-14T13:02:40.679Z,102220.42
2018-09-14T13:05:09.528Z,102215.64
2018-09-14T13:07:38.299Z,102213.40
2018-09-14T13:10:07.203Z,102213.78
2018-09-14T13:12:35.970Z,102217.36
2018-09-14T13:15:04.899Z,102210.05
2018-09-14T13:17:33.597Z,102218.95
2018-09-14T13:20:02.426Z,102219.57
2018-09-14T13:22:31.209Z,102213.33
2018-09-14T13:24:59.995Z,102226.10
2018-09-14T13:27:28.952Z,102226.98
2018-09-14T13:29:57.836Z,102215.87
2018-09-14T13:32:26.523Z,102233.13
2018-09-14T13:34:55.423Z,102229.27
2018-09-14T13:37:24.192Z,102216.91
2018-09-14T13:39:52.998Z,102236.33
2018-09-14T13:42:22.000Z,102230.95
2018-09-14T13:44:50.832Z,102220.27
2018-09-14T13:47:19.617Z,102226.97
2018-09-14T13:49:48.357Z,102216.51
2018-09-14T13:52:17.104Z,102216.51
2018-09-14T13:54:45.759Z,102216.16
2018-09-14T13:57:14.424Z,102223.74
2018-09-14T13:59:43.092Z,102215.02
2018-09-14T14:02:11.755Z,102206.22
2018-09-14T14:04:40.408Z,102209.30
2018-09-14T14:07:09.059Z,102209.94
2018-09-14T14:09:37.775Z,102211.47
2018-09-14T14:12:06.432Z,102200.88
2018-09-14T14:14:35.099Z,102210.51
2018-09-14T14:17:03.817Z,102203.30
2018-09-14T14:19:32.473Z,102202.86
2018-09-14T14:22:01.212Z,102204.59
2018-09-14T14:24:29.863Z,102209.51
2018-09-14T14:26:58.530Z,102208.39
2018-09-14T14:29:27.258Z,102215.20
2018-09-14T14:31:55.899Z,102222.09
2018-09-14T14:34:32.023Z,102220.13
2018-09-14T14:37:00.786Z,102215.84
2018-09-14T14:39:29.519Z,102222.19
2018-09-14T14:41:58.189Z,102225.00
2018-09-14T14:44:26.907Z,102227.38
2018-09-14T14:46:55.578Z,102229.46
2018-09-14T14:49:24.358Z,102219.80
2018-09-14T14:51:53.072Z,102224.53
2018-09-14T14:54:21.734Z,102226.45
2018-09-14T14:56:50.417Z,102227.95
2018-09-14T14:59:19.139Z,102235.33
2018-09-14T15:01:47.891Z,102240.48
2018-09-14T15:04:16.537Z,102227.39
2018-09-14T15:06:45.181Z,102215.25
2018-09-14T15:09:13.929Z,102212.69
2018-09-14T15:11:42.611Z,102214.03
2018-09-14T15:14:11.324Z,102206.00
2018-09-14T15:16:40.042Z,102215.08
2018-09-14T15:19:08.744Z,102220.53
2018-09-14T15:21:37.414Z,102217.42
2018-09-14T15:24:06.202Z,102226.42
2018-09-14T15:26:34.908Z,102223.55
2018-09-14T15:29:03.749Z,102224.87
2018-09-14T15:31:32.412Z,102220.79
2018-09-14T15:34:01.642Z,102223.48
2018-09-14T15:36:30.561Z,102216.24
2018-09-14T15:38:59.345Z,102208.14
2018-09-14T15:41:28.208Z,102206.98
2018-09-14T15:43:57.008Z,102199.52
2018-09-14T15:46:33.838Z,102195.72
2018-09-14T15:49:02.656Z,102199.68
2018-09-14T15:51:31.633Z,102201.81
2018-09-14T15:54:00.339Z,102212.43
2018-09-14T15:56:29.265Z,102204.77
2018-09-14T15:58:58.094Z,102207.73
2018-09-14T16:01:27.072Z,102201.86
2018-09-14T16:03:55.828Z,102214.93
2018-09-14T16:06:25.269Z,102212.04
2018-09-14T16:08:54.080Z,102217.78
2018-09-14T16:11:22.841Z,102219.67
2018-09-14T16:13:51.701Z,102224.48
2018-09-14T16:16:20.405Z,102223.85
2018-09-14T16:18:49.217Z,102227.28
2018-09-14T16:21:17.828Z,102233.86
2018-09-14T16:23:46.573Z,102218.20
2018-09-14T16:26:15.260Z,102218.78
2018-09-14T16:28:43.904Z,102221.20
2018-09-14T16:31:12.553Z,102221.89
2018-09-14T16:33:41.292Z,102217.80
2018-09-14T16:36:10.052Z,102209.79
2018-09-14T16:38:38.835Z,102215.39
2018-09-14T16:41:07.621Z,102210.05
2018-09-14T16:43:36.379Z,102207.91
2018-09-14T16:46:05.105Z,102216.55
2018-09-14T16:48:33.956Z,102210.92
2018-09-14T16:51:02.793Z,102213.70
2018-09-14T16:53:31.543Z,102203.65
2018-09-14T16:56:00.272Z,102212.66
2018-09-14T16:58:29.027Z,102209.84
2018-09-14T17:00:57.888Z,102217.95
2018-09-14T17:03:26.666Z,102214.17
2018-09-14T17:05:55.470Z,102222.91
2018-09-14T17:08:24.203Z,102219.66
2018-09-14T17:10:53.091Z,102221.57
2018-09-14T17:13:21.909Z,102232.61
2018-09-14T17:15:50.728Z,102228.15
2018-09-14T17:18:19.487Z,102235.86
2018-09-14T17:20:48.258Z,102232.23
2018-09-14T17:23:17.011Z,102233.86
2018-09-14T17:25:45.753Z,102232.41
2018-09-14T17:28:14.487Z,102231.90
2018-09-14T17:30:43.375Z,102240.52
2018-09-14T17:33:12.227Z,102246.77
2018-09-14T17:35:41.197Z,102234.24
2018-09-14T17:38:10.100Z,102238.75
2018-09-14T17:40:38.807Z,102241.38
2018-09-14T17:43:07.547Z,102235.27
2018-09-14T17:45:36.520Z,102233.86
2018-09-14T17:48:05.350Z,102248.73
2018-09-14T17:50:34.219Z,102244.95
2018-09-14T17:53:03.044Z,102239.67
2018-09-14T17:55:31.984Z,102240.78
2018-09-14T17:58:00.881Z,102237.75
2018-09-14T18:00:29.740Z,102236.98
2018-09-14T18:02:58.575Z,102245.44
2018-09-14T18:05:27.348Z,102253.39
2018-09-14T18:07:56.420Z,102249.69
2018-09-14T18:10:25.204Z,102251.16
2018-09-14T18:12:54.037Z,102250.54
2018-09-14T18:15:22.950Z,102245.39
2018-09-14T18:17:51.677Z,102253.04
2018-09-14T18:20:20.446Z,102245.78
2018-09-14T18:22:49.255Z,102266.89
2018-09-14T18:25:18.284Z,102257.06
2018-09-14T18:27:47.258Z,102251.33
2018-09-14T18:30:15.948Z,102256.86
2018-09-14T18:32:44.685Z,102263.67
2018-09-14T18:35:13.407Z,102258.19
2018-09-14T18:37:49.124Z,102261.02
2018-09-14T18:40:17.817Z,102265.05
2018-09-14T18:42:48.120Z,102264.88
2018-09-14T18:45:16.797Z,102266.33
2018-09-14T18:47:45.483Z,102264.75
2018-09-14T18:50:14.174Z,102274.77
2018-09-14T18:52:42.879Z,102278.30
2018-09-14T18:55:11.590Z,102279.70
2018-09-14T18:57:41.115Z,102282.80
2018-09-14T19:00:09.930Z,102276.13
2018-09-14T19:02:38.652Z,102280.08
2018-09-14T19:05:07.460Z,102287.97
2018-09-14T19:07:36.202Z,102283.56
2018-09-14T19:10:04.980Z,102285.28
2018-09-14T19:12:33.772Z,102290.05
2018-09-14T19:15:02.461Z,102285.20
2018-09-14T19:17:31.167Z,102291.77
2018-09-14T19:19:59.988Z,102288.59
2018-09-14T19:22:28.760Z,102287.69
2018-09-14T19:24:57.838Z,102291.63
2018-09-14T19:27:26.552Z,102291.55
2018-09-14T19:29:55.278Z,102297.80
2018-09-14T19:32:23.979Z,102307.41
2018-09-14T19:34:52.665Z,102301.88
2018-09-14T19:37:21.356Z,102300.57
2018-09-14T19:39:50.056Z,102304.60
2018-09-14T19:42:18.756Z,102307.63
2018-09-14T19:44:47.460Z,102307.23
2018-09-14T19:47:16.159Z,102306.83
2018-09-14T19:49:44.821Z,102316.89
2018-09-14T19:52:13.542Z,102315.44
2018-09-14T19:54:42.226Z,102319.38
2018-09-14T19:57:10.930Z,102318.29
2018-09-14T19:59:39.657Z,102327.49
2018-09-14T20:02:08.439Z,102324.23
2018-09-14T20:04:37.132Z,102327.36
2018-09-14T20:07:05.875Z,102327.45
2018-09-14T20:09:34.598Z,102328.81
2018-09-14T20:12:03.384Z,102327.98
2018-09-14T20:14:32.092Z,102327.58
2018-09-14T20:17:00.791Z,102333.38
2018-09-14T20:19:29.494Z,102338.23
2018-09-14T20:21:58.187Z,102327.40
2018-09-14T20:24:26.897Z,102335.61
2018-09-14T20:26:55.581Z,102336.92
2018-09-14T20:29:24.283Z,102337.78
2018-09-14T20:31:52.982Z,102343.03
2018-09-14T20:34:21.676Z,102345.58
2018-09-14T20:36:50.388Z,102350.47
2018-09-14T20:39:19.106Z,102344.35
2018-09-14T20:41:47.800Z,102347.89
2018-09-14T20:44:16.571Z,102348.75
2018-09-14T20:46:45.265Z,102348.83
2018-09-14T20:49:13.966Z,102354.09
2018-09-14T20:51:42.744Z,102353.23
2018-09-14T20:54:11.399Z,102348.43
2018-09-14T20:56:40.092Z,102352.37
2018-09-14T20:59:08.895Z,102349.75
2018-09-14T21:01:37.588Z,102352.78
2018-09-14T21:04:06.288Z,102355.45
2018-09-14T21:06:35.056Z,102362.89
2018-09-14T21:09:04.032Z,102368.59
2018-09-14T21:11:32.771Z,102367.28
2018-09-14T21:14:01.523Z,102367.69
2018-09-14T21:16:30.240Z,102360.21
2018-09-14T21:18:58.956Z,102361.57
2018-09-14T21:21:27.689Z,102355.41
2018-09-14T21:23:56.367Z,102351.92
2018-09-14T21:26:25.147Z,102355.45
2018-09-14T21:28:53.836Z,102370.77
2018-09-14T21:31:22.514Z,102370.31
2018-09-14T21:33:51.219Z,102370.77
2018-09-14T21:36:19.920Z,102373.40
2018-09-14T21:38:48.635Z,102384.83
2018-09-14T21:41:17.336Z,102383.52
2018-09-14T21:43:46.021Z,102380.52
2018-09-14T21:46:14.838Z,102375.79
2018-09-14T21:48:43.542Z,102387.13
2018-09-14T21:51:12.266Z,102381.05
2018-09-14T21:53:41.039Z,102388.85
2018-09-14T21:56:09.713Z,102390.70
2018-09-14T21:58:38.426Z,102386.35
2018-09-14T22:01:14.736Z,102389.06
2018-09-14T22:03:44.904Z,102388.20
2018-09-14T22:06:13.617Z,102393.47
2018-09-14T22:08:42.620Z,102402.20
2018-09-14T22:11:11.327Z,102397.00
2018-09-14T22:13:40.036Z,102398.39
2018-09-14T22:16:08.749Z,102396.22
2018-09-14T22:18:37.429Z,102398.53
2018-09-14T22:21:06.757Z,102401.20
2018-09-14T22:23:35.444Z,102391.36
2018-09-14T22:26:04.195Z,102397.80
2018-09-14T22:28:32.944Z,102395.95
2018-09-14T22:31:01.631Z,102402.87
2018-09-14T22:33:30.363Z,102393.27
2018-09-14T22:35:59.204Z,102396.35
2018-09-14T22:38:27.976Z,102399.52
2018-09-14T22:40:56.733Z,102396.94
2018-09-14T22:43:25.486Z,102396.03
2018-09-14T22:45:54.196Z,102399.11
2018-09-14T22:48:22.956Z,102406.14
2018-09-14T22:50:51.701Z,102405.31
2018-09-14T22:53:20.486Z,102396.61
2018-09-14T22:55:49.212Z,102399.24
2018-09-14T22:58:17.940Z,102401.55
2018-09-14T23:00:51.722Z,102400.28
2018-09-14T23:03:20.410Z,102398.05
2018-09-14T23:05:49.100Z,102398.55
2018-09-14T23:08:17.775Z,102394.11
2018-09-14T23:10:46.443Z,102391.36
2018-09-14T23:13:15.116Z,102400.51
2018-09-14T23:15:48.904Z,102389.13
2018-09-14T23:18:17.589Z,102394.80
2018-09-14T23:20:46.336Z,102388.23
2018-09-14T23:23:15.098Z,102390.85
2018-09-14T23:25:43.780Z,102386.91
2018-09-14T23:28:12.477Z,102384.79
2018-09-14T23:30:41.152Z,102388.36
2018-09-14T23:33:09.852Z,102396.34
2018-09-14T23:35:38.556Z,102394.24
2018-09-14T23:38:07.257Z,102389.90
2018-09-14T23:40:35.965Z,102388.58
2018-09-14T23:43:04.632Z,102386.86
2018-09-14T23:45:33.420Z,102385.95
2018-09-14T23:48:02.133Z,102386.81
2018-09-14T23:50:30.846Z,102389.90
2018-09-14T23:52:59.549Z,102382.59
2018-09-14T23:55:29.124Z,102392.33
2018-09-14T23:57:57.795Z,102387.66
